Time;durP1;ratioP1;P1;durP2;ratioP2;P2;SDS_P1;SDS_P2;PMS_P1;PMS_P2;Temp;Humidity;BMP_temperature;BMP_pressure;BME280_temperature;BME280_humidity;BME280_pressure;Samples;Min_cycle;Max_cycle;Signal;HPM_P1;HPM_P2
2023/06/16 00:01:16;;;;;;;10.13;6.50;;;;;;;19.82;100.00;99461.41;5008254;28;20390;-18
2023/06/16 00:03:43;;;;;;;9.95;7.15;;;;;;;19.89;100.00;99461.84;5008326;28;20033;-18
2023/06/16 00:06:13;;;;;;;10.52;6.25;;;;;;;19.65;100.00;99460.00;5008643;28;20037;-18
2023/06/16 00:08:54;;;;;;;11.63;6.72;;;;;;;19.53;100.00;99448.81;5008794;28;20096;-19
2023/06/16 00:11:20;;;;;;;9.77;6.70;;;;;;;19.45;100.00;99460.28;5008449;28;20022;-18
2023/06/16 00:13:47;;;;;;;9.65;7.15;;;;;;;19.33;100.00;99462.63;5008532;28;20034;-18
2023/06/16 00:16:14;;;;;;;10.13;6.90;;;;;;;19.23;100.00;99461.69;4995683;28;20031;-20
2023/06/16 00:18:43;;;;;;;9.77;7.68;;;;;;;19.47;100.00;99463.50;4989112;28;20046;-19
2023/06/16 00:21:19;;;;;;;11.45;7.28;;;;;;;19.44;100.00;99466.81;4988281;28;20509;-20
2023/06/16 00:23:45;;;;;;;9.55;7.03;;;;;;;19.41;100.00;99464.69;4988763;28;20153;-18
2023/06/16 00:26:11;;;;;;;11.75;7.70;;;;;;;19.37;100.00;99472.59;4988612;28;20114;-19
2023/06/16 00:28:38;;;;;;;10.38;7.68;;;;;;;19.31;100.00;99472.94;4988483;28;20026;-19
2023/06/16 00:31:03;;;;;;;9.70;7.30;;;;;;;19.31;100.00;99456.72;4988451;28;20031;-18
2023/06/16 00:33:29;;;;;;;11.05;7.10;;;;;;;19.35;100.00;99466.66;4988433;28;20101;-21
2023/06/16 00:35:54;;;;;;;10.20;7.68;;;;;;;19.44;100.00;99469.50;4988574;28;20085;-18
2023/06/16 00:38:20;;;;;;;13.35;8.02;;;;;;;19.47;100.00;99468.91;4988357;28;20113;-18
2023/06/16 00:40:45;;;;;;;14.65;7.97;;;;;;;19.42;100.00;99467.09;4988606;28;20429;-18
2023/06/16 00:43:11;;;;;;;12.68;8.10;;;;;;;19.22;100.00;99464.69;4987593;28;20050;-19
2023/06/16 00:45:36;;;;;;;11.60;7.95;;;;;;;19.10;100.00;99456.97;4988060;28;20042;-18
2023/06/16 00:48:02;;;;;;;11.80;7.63;;;;;;;19.24;100.00;99463.28;4988257;28;20036;-18
2023/06/16 00:50:28;;;;;;;11.52;7.78;;;;;;;19.22;100.00;99467.38;4988170;28;20042;-19
2023/06/16 00:52:54;;;;;;;12.45;8.15;;;;;;;19.11;100.00;99464.00;4988405;28;20046;-18
2023/06/16 00:55:21;;;;;;;10.10;7.95;;;;;;;19.13;100.00;99464.53;4988253;28;20019;-18
2023/06/16 00:57:50;;;;;;;10.93;7.87;;;;;;;19.22;100.00;99464.69;4987529;28;20035;-18
2023/06/16 01:00:17;;;;;;;12.07;7.55;;;;;;;19.41;100.00;99464.69;4987799;28;20514;-18
2023/06/16 01:02:46;;;;;;;11.52;8.25;;;;;;;19.13;100.00;99456.41;4987861;28;20030;-20
2023/06/16 01:05:16;;;;;;;12.43;9.00;;;;;;;19.02;100.00;99468.44;4987887;28;20035;-19
2023/06/16 01:08:13;;;;;;;11.73;9.13;;;;;;;19.08;100.00;99456.47;4988239;28;20053;-18
2023/06/16 01:11:06;;;;;;;12.93;8.77;;;;;;;19.08;100.00;99456.47;4987541;28;20113;-19
2023/06/16 01:13:52;;;;;;;11.65;8.73;;;;;;;19.01;100.00;99461.44;4987679;28;20046;-19
2023/06/16 01:16:22;;;;;;;12.90;8.65;;;;;;;19.00;100.00;99449.00;4988241;28;20037;-19
2023/06/16 01:18:51;;;;;;;13.88;8.23;;;;;;;18.81;100.00;99444.38;4987383;28;20024;-18
2023/06/16 01:21:38;;;;;;;12.55;8.40;;;;;;;18.94;100.00;99458.28;4987701;28;20101;-18
2023/06/16 01:24:14;;;;;;;12.35;8.30;;;;;;;18.91;100.00;99462.38;4995337;28;20037;-19
2023/06/16 01:26:46;;;;;;;11.57;8.90;;;;;;;19.06;100.00;99458.66;5007170;28;20038;-20
2023/06/16 01:29:13;;;;;;;12.73;8.55;;;;;;;19.07;100.00;99454.88;5007223;28;20030;-18
2023/06/16 01:31:41;;;;;;;11.57;8.27;;;;;;;19.06;100.00;99458.66;5006842;28;20038;-18
2023/06/16 01:34:08;;;;;;;12.18;9.13;;;;;;;19.04;100.00;99450.88;5006754;28;20018;-19
2023/06/16 01:36:37;;;;;;;11.50;9.25;;;;;;;19.12;100.00;99451.28;5006984;28;20036;-19
2023/06/16 01:39:04;;;;;;;13.20;8.93;;;;;;;18.94;100.00;99453.69;5006667;28;20030;-20
2023/06/16 01:41:30;;;;;;;13.07;9.20;;;;;;;19.08;100.00;99451.06;5006621;28;20563;-19
2023/06/16 01:43:56;;;;;;;12.88;9.07;;;;;;;19.00;100.00;99455.25;5006632;28;20081;-19
2023/06/16 01:46:23;;;;;;;13.10;9.60;;;;;;;18.91;100.00;99426.44;5007038;28;20128;-19
2023/06/16 01:48:49;;;;;;;12.75;9.80;;;;;;;19.02;100.00;99453.06;5006838;28;20037;-18
2023/06/16 01:51:15;;;;;;;11.35;8.35;;;;;;;19.05;100.00;99444.34;5006665;28;20063;-18
2023/06/16 01:53:41;;;;;;;12.38;9.57;;;;;;;19.00;100.00;99454.41;5006376;28;20464;-18
2023/06/16 01:56:10;;;;;;;13.90;9.25;;;;;;;18.90;100.00;99435.63;5006667;28;20018;-18
2023/06/16 01:58:36;;;;;;;13.02;9.63;;;;;;;18.90;100.00;99443.72;5006425;28;20036;-18
2023/06/16 02:01:08;;;;;;;12.25;9.95;;;;;;;18.89;100.00;99442.94;5006291;28;20026;-18
2023/06/16 02:03:48;;;;;;;14.25;9.27;;;;;;;18.73;100.00;99453.09;5006138;28;20026;-19
2023/06/16 02:06:30;;;;;;;14.25;8.80;;;;;;;18.78;100.00;99427.94;5006433;28;20030;-19
2023/06/16 02:08:58;;;;;;;13.25;9.07;;;;;;;18.73;100.00;99439.56;5005354;28;20056;-18
2023/06/16 02:11:24;;;;;;;;;;;;;;;18.77;100.00;99440.59;5006839;28;20128;-19
2023/06/16 02:13:50;;;;;;;13.05;9.77;;;;;;;18.71;100.00;99435.56;5006079;28;20400;-19
2023/06/16 02:16:18;;;;;;;12.52;9.90;;;;;;;18.89;100.00;99442.13;5006277;28;20053;-18
2023/06/16 02:18:44;;;;;;;11.80;8.48;;;;;;;18.81;100.00;99430.88;5006174;28;20030;-18
2023/06/16 02:21:09;;;;;;;13.70;9.90;;;;;;;18.80;100.00;99426.56;5005882;28;20049;-19
2023/06/16 02:23:35;;;;;;;14.05;10.05;;;;;;;18.76;100.00;99435.53;5006136;28;20048;-18
2023/06/16 02:26:00;;;;;;;12.00;9.40;;;;;;;18.69;100.00;99446.66;5005877;28;20052;-21
2023/06/16 02:28:26;;;;;;;13.65;9.23;;;;;;;18.79;100.00;99438.47;5006142;28;20138;-18
2023/06/16 02:30:51;;;;;;;12.35;9.10;;;;;;;18.73;100.00;99452.28;5005809;28;20034;-18
2023/06/16 02:33:17;;;;;;;13.45;9.27;;;;;;;18.74;100.00;99438.50;5005922;28;20060;-18
2023/06/16 02:35:42;;;;;;;12.27;9.40;;;;;;;18.75;100.00;99442.00;5005772;28;20405;-20
2023/06/16 02:38:08;;;;;;;14.00;9.65;;;;;;;18.79;100.00;99437.66;5004423;28;20026;-20
2023/06/16 02:40:34;;;;;;;15.15;9.43;;;;;;;18.60;100.00;99440.28;5006105;28;20805;-19
2023/06/16 02:43:00;;;;;;;13.35;10.13;;;;;;;18.72;100.00;99437.97;5005757;28;20509;-25
2023/06/16 02:45:26;;;;;;;14.38;9.95;;;;;;;18.77;100.00;99443.31;5005882;28;20029;-18
2023/06/16 02:47:51;;;;;;;14.95;10.07;;;;;;;18.81;100.00;99438.97;5005676;28;20021;-18
2023/06/16 02:50:17;;;;;;;13.38;10.43;;;;;;;18.79;100.00;99438.47;5005870;28;20517;-19
2023/06/16 02:52:43;;;;;;;13.38;10.25;;;;;;;18.91;100.00;99429.94;5005595;28;20730;-18
2023/06/16 02:55:09;;;;;;;13.35;10.57;;;;;;;18.74;100.00;99430.41;5005661;28;20026;-20
2023/06/16 02:57:35;;;;;;;15.55;10.38;;;;;;;18.56;100.00;99433.84;5005670;28;20624;-19
2023/06/16 03:00:03;;;;;;;13.98;10.73;;;;;;;18.66;100.00;99437.22;5005839;28;20084;-20
2023/06/16 03:02:29;;;;;;;16.98;10.68;;;;;;;18.71;100.00;99430.16;4988256;28;20030;-18
2023/06/16 03:04:55;;;;;;;14.05;10.07;;;;;;;18.87;100.00;99424.31;5005571;28;20033;-18
2023/06/16 03:07:22;;;;;;;14.13;10.70;;;;;;;18.99;100.00;99428.50;5005469;28;20022;-20
2023/06/16 03:09:47;;;;;;;13.48;9.60;;;;;;;18.74;100.00;99443.09;5005407;28;20061;-19
2023/06/16 03:12:13;;;;;;;12.18;9.55;;;;;;;18.76;100.00;99457.91;5005617;28;20072;-18
2023/06/16 03:14:38;;;;;;;12.07;9.55;;;;;;;18.74;100.00;99441.19;5005489;28;20138;-19
2023/06/16 03:17:05;;;;;;;13.68;10.43;;;;;;;18.75;100.00;99445.50;5005525;28;20072;-18
2023/06/16 03:19:30;;;;;;;12.68;9.55;;;;;;;18.79;100.00;99441.16;5006732;28;20026;-20
2023/06/16 03:21:56;;;;;;;13.07;10.32;;;;;;;19.03;100.00;99443.84;5009616;28;20420;-18
2023/06/16 03:24:23;;;;;;;13.23;9.75;;;;;;;19.20;100.00;99443.34;5009243;28;20465;-18
2023/06/16 03:26:48;;;;;;;13.63;10.67;;;;;;;19.20;100.00;99453.34;5009223;28;20493;-18
2023/06/16 03:29:14;;;;;;;15.90;10.38;;;;;;;19.13;100.00;99452.91;5009372;28;20034;-18
2023/06/16 03:31:39;;;;;;;13.55;10.38;;;;;;;19.02;100.00;99463.03;5008928;28;20022;-21
2023/06/16 03:34:05;;;;;;;14.75;10.70;;;;;;;19.02;100.00;99452.22;5009133;28;20468;-18
2023/06/16 03:36:39;;;;;;;15.60;10.90;;;;;;;19.16;100.00;99447.72;5009646;28;20026;-18
2023/06/16 03:39:05;;;;;;;14.95;10.85;;;;;;;19.19;100.00;99463.38;5008950;28;20034;-19
2023/06/16 03:41:32;;;;;;;15.13;10.90;;;;;;;19.20;100.00;99437.94;5009073;28;20036;-19
2023/06/16 03:43:57;;;;;;;14.88;10.48;;;;;;;19.14;100.00;99452.59;5008939;28;20100;-19
2023/06/16 03:46:23;;;;;;;14.60;10.63;;;;;;;19.15;100.00;99432.59;5008811;28;20033;-19
2023/06/16 03:48:48;;;;;;;15.40;10.80;;;;;;;19.13;100.00;99451.00;5008982;28;20076;-19
2023/06/16 03:51:14;;;;;;;13.38;9.88;;;;;;;19.23;100.00;99442.75;5008754;28;20041;-18
2023/06/16 03:53:40;;;;;;;13.15;10.55;;;;;;;19.17;100.00;99452.03;5008535;28;20048;-18
2023/06/16 03:56:05;;;;;;;15.48;11.68;;;;;;;19.36;100.00;99456.66;5008740;28;20037;-18
2023/06/16 03:58:31;;;;;;;14.15;10.35;;;;;;;19.18;100.00;99444.72;5008844;28;20022;-19
2023/06/16 04:00:56;;;;;;;13.93;10.70;;;;;;;19.14;100.00;99452.59;5008622;28;20029;-20
2023/06/16 04:03:25;;;;;;;13.60;10.68;;;;;;;19.11;100.00;99439.69;5008691;28;20038;-18
2023/06/16 04:05:51;;;;;;;14.13;10.30;;;;;;;19.23;100.00;99448.16;5008641;28;20109;-18
2023/06/16 04:08:16;;;;;;;15.05;11.38;;;;;;;19.10;100.00;99454.28;5008285;28;20504;-18
2023/06/16 04:10:42;;;;;;;12.93;10.23;;;;;;;19.26;100.00;99450.28;5008667;28;20076;-19
2023/06/16 04:13:07;;;;;;;17.13;10.75;;;;;;;19.23;100.00;99447.38;5008497;28;20428;-18
2023/06/16 04:15:33;;;;;;;13.20;10.63;;;;;;;19.31;100.00;99448.59;5008617;28;20184;-21
2023/06/16 04:17:58;;;;;;;13.95;9.93;;;;;;;19.35;100.00;99449.63;5008404;28;20446;-18
2023/06/16 04:20:23;;;;;;;13.48;10.13;;;;;;;19.31;100.00;99449.44;5008434;28;20025;-19
2023/06/16 04:22:49;;;;;;;16.55;10.82;;;;;;;19.48;100.00;99443.50;5008124;28;20022;-19
2023/06/16 04:25:14;;;;;;;14.30;10.52;;;;;;;19.57;100.00;99447.13;5008293;28;21268;-18
2023/06/16 04:27:40;;;;;;;12.55;9.80;;;;;;;19.32;100.00;99447.53;5008074;28;20062;-18
2023/06/16 04:30:06;;;;;;;14.15;11.27;;;;;;;19.56;100.00;99445.53;5007916;28;20026;-18
2023/06/16 04:32:35;;;;;;;18.80;10.73;;;;;;;19.58;100.00;99447.97;5007236;28;20028;-18
2023/06/16 04:35:04;;;;;;;15.50;11.15;;;;;;;19.86;100.00;99446.19;5008252;28;20026;-19
2023/06/16 04:37:30;;;;;;;14.27;10.30;;;;;;;19.64;100.00;99442.16;5008008;28;20022;-18
2023/06/16 04:39:56;;;;;;;15.02;10.40;;;;;;;19.64;100.00;99442.16;5007732;28;20842;-18
2023/06/16 04:42:21;;;;;;;15.57;11.48;;;;;;;19.59;100.00;99439.53;5007893;28;20062;-18
2023/06/16 04:44:47;;;;;;;15.75;11.13;;;;;;;19.79;100.00;99451.16;5007865;28;20034;-18
2023/06/16 04:47:12;;;;;;;14.35;10.80;;;;;;;19.74;100.00;99448.56;5007781;28;20391;-18
2023/06/16 04:49:38;;;;;;;14.75;10.55;;;;;;;19.68;100.00;99436.97;5007953;28;20022;-19
2023/06/16 04:52:06;;;;;;;15.52;11.60;;;;;;;19.63;100.00;99451.38;5007523;28;20034;-19
2023/06/16 04:54:32;;;;;;;14.02;10.95;;;;;;;19.74;100.00;99446.66;5007902;28;20044;-18
2023/06/16 04:56:58;;;;;;;15.32;11.40;;;;;;;19.97;100.00;99449.53;5007593;28;20034;-23
2023/06/16 04:59:24;;;;;;;16.63;11.25;;;;;;;20.04;100.00;99448.06;5007499;28;20032;-18
2023/06/16 05:01:50;;;;;;;14.15;10.90;;;;;;;20.32;100.00;99445.41;5007458;28;20097;-18
2023/06/16 05:04:15;;;;;;;17.27;12.20;;;;;;;20.41;100.00;99443.63;5007108;28;20029;-20
2023/06/16 05:06:41;;;;;;;15.02;11.55;;;;;;;20.37;100.00;99448.03;5007358;28;20109;-18
2023/06/16 05:09:06;;;;;;;16.58;10.70;;;;;;;20.45;100.00;99444.63;5006991;28;20057;-18
2023/06/16 05:11:32;;;;;;;14.18;11.02;;;;;;;20.58;100.00;99437.63;5007750;28;20764;-20
2023/06/16 05:13:57;;;;;;;13.52;11.57;;;;;;;20.57;100.00;99446.81;5007058;28;20034;-19
2023/06/16 05:16:23;;;;;;;13.85;10.98;;;;;;;20.65;100.00;99443.44;5007119;28;20780;-18
2023/06/16 05:18:48;;;;;;;16.55;11.75;;;;;;;20.36;100.00;99448.31;5007453;28;20029;-19
2023/06/16 05:21:13;;;;;;;16.95;10.70;;;;;;;20.23;100.00;99447.19;5006926;28;20072;-18
2023/06/16 05:23:39;;;;;;;15.27;11.25;;;;;;;20.32;100.00;99450.81;5007143;28;20034;-19
2023/06/16 05:26:06;;;;;;;13.07;10.40;;;;;;;20.20;100.00;99442.38;5006879;28;20413;-24
2023/06/16 05:28:31;;;;;;;15.48;11.20;;;;;;;20.40;100.00;99449.31;5007268;28;20033;-19
2023/06/16 05:30:56;;;;;;;15.27;11.15;;;;;;;20.70;100.00;99445.25;5007089;28;20406;-19
2023/06/16 05:33:22;;;;;;;14.52;10.00;;;;;;;20.87;100.00;99448.16;5007078;28;20408;-18
2023/06/16 05:35:47;;;;;;;15.00;11.00;;;;;;;21.23;100.00;99452.03;5006789;28;20034;-18
2023/06/16 05:38:13;;;;;;;14.07;10.43;;;;;;;21.18;100.00;99458.34;5006815;28;20388;-19
2023/06/16 05:40:38;;;;;;;15.57;11.02;;;;;;;21.11;100.00;99446.34;5006637;28;20033;-18
2023/06/16 05:43:04;;;;;;;14.38;10.55;;;;;;;21.04;100.00;99449.44;5006610;28;20074;-18
2023/06/16 05:45:29;;;;;;;14.30;10.85;;;;;;;21.06;100.00;99441.81;5006809;28;20084;-18
2023/06/16 05:47:55;;;;;;;13.20;9.63;;;;;;;21.45;100.00;99454.00;5006727;28;20429;-18
2023/06/16 05:50:20;;;;;;;13.57;9.80;;;;;;;21.52;100.00;99453.59;5006410;28;20485;-18
2023/06/16 05:52:46;;;;;;;15.35;10.23;;;;;;;21.63;100.00;99455.75;5006768;28;20041;-17
2023/06/16 05:55:11;;;;;;;18.02;11.73;;;;;;;21.74;100.00;99456.31;5006730;28;21200;-19
2023/06/16 05:57:37;;;;;;;16.63;11.10;;;;;;;21.77;100.00;99444.03;5006074;28;20033;-20
2023/06/16 06:00:04;;;;;;;12.73;10.57;;;;;;;22.05;100.00;99459.06;5006694;28;20180;-18
2023/06/16 06:02:30;;;;;;;14.50;10.23;;;;;;;22.42;100.00;99470.66;5006171;28;20524;-18
2023/06/16 06:04:55;;;;;;;12.55;9.70;;;;;;;21.88;100.00;99458.94;5006298;28;20033;-18
2023/06/16 06:07:21;;;;;;;14.70;10.23;;;;;;;21.97;100.00;99465.25;5006516;28;20037;-18
2023/06/16 06:09:46;;;;;;;15.57;10.77;;;;;;;21.97;100.00;99459.81;5006575;28;20394;-18
2023/06/16 06:12:12;;;;;;;17.35;11.13;;;;;;;21.66;100.00;99455.13;5006166;28;20433;-19
2023/06/16 06:14:37;;;;;;;15.27;10.63;;;;;;;21.72;100.00;99457.72;5006037;28;20267;-20
2023/06/16 06:17:03;;;;;;;16.10;11.55;;;;;;;21.87;100.00;99457.38;5006060;28;20030;-18
2023/06/16 06:19:29;;;;;;;14.70;11.63;;;;;;;22.24;100.00;99458.88;5006123;28;20018;-18
2023/06/16 06:21:54;;;;;;;15.45;10.50;;;;;;;22.40;100.00;99456.59;5006164;28;20361;-18
2023/06/16 06:24:20;;;;;;;20.30;10.80;;;;;;;22.35;98.52;99470.31;5005802;28;20045;-22
2023/06/16 06:26:46;;;;;;;16.83;10.52;;;;;;;22.30;100.00;99462.28;5006021;28;20029;-19
2023/06/16 06:29:11;;;;;;;13.15;10.70;;;;;;;22.41;100.00;99463.63;5005866;28;20741;-18
2023/06/16 06:31:37;;;;;;;15.63;10.35;;;;;;;22.73;96.87;99469.03;5006027;28;20088;-23
2023/06/16 06:34:02;;;;;;;14.88;10.40;;;;;;;22.60;98.66;99459.88;5005991;28;20049;-18
2023/06/16 06:36:28;;;;;;;13.93;9.90;;;;;;;22.80;95.86;99459.31;5005955;28;20053;-18
2023/06/16 06:38:57;;;;;;;18.90;13.13;;;;;;;22.77;93.85;99459.13;5005814;28;20025;-18
2023/06/16 06:41:23;;;;;;;16.80;11.63;;;;;;;22.77;96.05;99451.75;5005194;28;20053;-19
2023/06/16 06:43:49;;;;;;;13.20;11.23;;;;;;;23.01;94.14;99458.72;5005342;28;20053;-19
2023/06/16 06:46:17;;;;;;;14.48;10.40;;;;;;;22.88;92.27;99454.97;5005380;28;20044;-18
2023/06/16 06:48:43;;;;;;;15.90;12.30;;;;;;;23.02;92.40;99455.69;5005342;28;20117;-19
2023/06/16 06:51:09;;;;;;;13.30;8.98;;;;;;;22.76;90.82;99438.47;5005321;28;20108;-25
2023/06/16 06:53:35;;;;;;;13.65;9.93;;;;;;;23.05;90.28;99452.34;5004962;28;20503;-18
2023/06/16 06:56:00;;;;;;;13.00;10.15;;;;;;;23.20;90.80;99456.53;5005029;28;20119;-18
2023/06/16 06:58:26;;;;;;;16.02;10.13;;;;;;;23.12;93.15;99453.81;5005440;28;20565;-19
2023/06/16 07:00:52;;;;;;;15.57;10.38;;;;;;;23.19;92.81;99459.56;5004308;28;20053;-19
2023/06/16 07:03:17;;;;;;;13.82;10.38;;;;;;;23.36;91.63;99453.34;4985890;28;20037;-19
2023/06/16 07:05:43;;;;;;;11.85;9.13;;;;;;;23.14;89.58;99457.00;5004061;28;20544;-19
2023/06/16 07:08:08;;;;;;;12.48;8.43;;;;;;;23.20;88.54;99455.72;5004881;28;20460;-18
2023/06/16 07:10:36;;;;;;;10.68;7.78;;;;;;;23.19;84.13;99465.81;5004828;28;20511;-19
2023/06/16 07:13:02;;;;;;;15.65;8.88;;;;;;;23.38;87.09;99462.78;5005009;28;20108;-20
2023/06/16 07:15:27;;;;;;;12.57;8.88;;;;;;;23.70;86.66;99462.63;5004874;28;20121;-18
2023/06/16 07:17:53;;;;;;;11.00;7.90;;;;;;;23.94;82.08;99468.41;5005274;28;20048;-19
2023/06/16 07:20:20;;;;;;;13.57;7.70;;;;;;;23.74;84.42;99460.88;5005057;28;20054;-18
2023/06/16 07:22:47;;;;;;;11.50;8.45;;;;;;;24.05;82.28;99458.78;5005276;28;20034;-19
2023/06/16 07:25:12;;;;;;;9.93;8.23;;;;;;;24.00;82.32;99461.66;5005064;28;20142;-18
2023/06/16 07:27:38;;;;;;;10.15;8.10;;;;;;;23.65;82.98;99463.59;5005213;28;20025;-18
2023/06/16 07:30:05;;;;;;;10.90;8.52;;;;;;;23.55;83.44;99462.00;5004789;28;20045;-19
2023/06/16 07:32:30;;;;;;;12.20;9.30;;;;;;;23.80;83.41;99463.16;5004854;28;20026;-19
2023/06/16 07:34:56;;;;;;;13.60;8.43;;;;;;;23.71;84.56;99466.97;5005105;28;20038;-18
2023/06/16 07:37:21;;;;;;;10.07;7.72;;;;;;;23.82;83.15;99468.25;5004838;28;20030;-19
2023/06/16 07:39:47;;;;;;;12.13;8.13;;;;;;;23.83;80.23;99472.59;5005335;28;20459;-19
2023/06/16 07:42:13;;;;;;;9.65;7.50;;;;;;;23.82;82.24;99465.53;5005065;28;20088;-19
2023/06/16 07:44:38;;;;;;;13.23;8.15;;;;;;;24.10;78.71;99454.28;5005733;28;20053;-18
2023/06/16 07:47:04;;;;;;;10.70;8.35;;;;;;;24.53;78.09;99477.91;5005222;28;20083;-19
2023/06/16 07:49:30;;;;;;;11.68;8.00;;;;;;;24.61;77.10;99466.16;5005264;28;20041;-18
2023/06/16 07:51:55;;;;;;;17.95;7.60;;;;;;;24.77;77.47;99463.69;5005272;28;20034;-19
2023/06/16 07:54:21;;;;;;;10.52;7.57;;;;;;;24.50;75.87;99459.47;4987307;28;20448;-19
2023/06/16 07:56:47;;;;;;;14.75;8.07;;;;;;;24.49;78.70;99457.84;5005391;28;20804;-19
2023/06/16 07:59:12;;;;;;;12.18;7.43;;;;;;;25.30;70.62;99461.50;5005513;28;20056;-19
2023/06/16 08:01:38;;;;;;;27.92;9.30;;;;;;;25.78;69.48;99460.13;5005240;28;20424;-21
2023/06/16 08:04:03;;;;;;;9.35;7.05;;;;;;;25.79;66.89;99461.72;5005081;28;20475;-19
2023/06/16 08:06:29;;;;;;;12.25;6.88;;;;;;;26.03;66.08;99461.84;5006261;28;20358;-18
2023/06/16 08:08:56;;;;;;;11.32;6.55;;;;;;;26.43;66.36;99458.50;5008782;28;20026;-18
2023/06/16 08:11:21;;;;;;;9.48;6.22;;;;;;;26.80;62.21;99450.31;5008548;28;20038;-17
2023/06/16 08:13:47;;;;;;;8.32;4.38;;;;;;;26.23;56.07;99453.91;5008754;28;20045;-18
2023/06/16 08:16:12;;;;;;;6.47;4.22;;;;;;;26.86;54.68;99443.47;5008545;28;20108;-19
2023/06/16 08:18:38;;;;;;;6.90;3.72;;;;;;;26.66;52.78;99449.88;5008635;28;20038;-19
2023/06/16 08:21:04;;;;;;;6.50;3.65;;;;;;;26.17;53.49;99445.13;5008158;28;20033;-20
2023/06/16 08:23:29;;;;;;;6.47;4.13;;;;;;;26.05;55.78;99443.19;5008420;28;20026;-18
2023/06/16 08:25:55;;;;;;;5.63;3.75;;;;;;;26.15;51.74;99436.47;5008130;28;20526;-19
2023/06/16 08:28:21;;;;;;;7.32;4.10;;;;;;;26.24;55.47;99433.66;5008482;28;20064;-19
2023/06/16 08:30:46;;;;;;;8.38;4.50;;;;;;;26.54;54.38;99447.09;5008347;28;20471;-19
2023/06/16 08:33:11;;;;;;;8.00;4.13;;;;;;;26.24;54.16;99439.13;5008105;28;20037;-21
2023/06/16 08:35:37;;;;;;;12.23;4.85;;;;;;;26.01;53.60;99442.25;5008175;28;20201;-20
2023/06/16 08:38:02;;;;;;;9.00;4.00;;;;;;;26.34;54.52;99440.63;5008111;28;20030;-18
2023/06/16 08:40:28;;;;;;;6.32;3.38;;;;;;;26.50;48.90;99440.72;5008060;28;20025;-20
2023/06/16 08:42:55;;;;;;;8.95;4.30;;;;;;;26.14;55.34;99421.22;5007948;28;20112;-18
2023/06/16 08:45:21;;;;;;;9.27;3.75;;;;;;;26.23;53.92;99432.03;5007727;28;20416;-21
2023/06/16 08:47:46;;;;;;;7.75;3.00;;;;;;;26.44;48.49;99442.91;5007817;28;20526;-19
2023/06/16 08:50:13;;;;;;;8.13;3.88;;;;;;;26.04;53.11;99435.31;5008078;28;20030;-23
2023/06/16 08:52:40;;;;;;;9.55;4.15;;;;;;;26.22;53.23;99433.19;5007803;28;20551;-18
2023/06/16 08:55:12;;;;;;;6.15;4.22;;;;;;;26.41;53.33;99433.44;5007614;28;20469;-18
2023/06/16 08:57:46;;;;;;;7.75;3.50;;;;;;;26.57;51.88;99435.50;5008087;28;20038;-18
2023/06/16 09:00:13;;;;;;;7.28;3.83;;;;;;;26.57;49.71;99440.97;5007706;28;20115;-21
2023/06/16 09:02:41;;;;;;;11.88;4.18;;;;;;;26.75;52.59;99425.94;5007653;28;20501;-19
2023/06/16 09:05:07;;;;;;;;;;;;;;;26.69;48.12;99427.31;5008182;28;20048;-18
2023/06/16 09:07:33;;;;;;;4.63;2.38;;;;;;;26.74;43.22;99432.56;5007618;28;20003;-19
2023/06/16 09:09:58;;;;;;;12.38;3.72;;;;;;;26.76;45.99;99424.78;5007521;28;20109;-18
2023/06/16 09:12:24;;;;;;;11.43;3.60;;;;;;;26.71;47.75;99418.78;5007256;28;20033;-19
2023/06/16 09:14:50;;;;;;;4.10;2.67;;;;;;;27.20;44.11;99422.22;5007522;28;20030;-18
2023/06/16 09:17:27;;;;;;;6.05;3.10;;;;;;;27.63;45.67;99420.75;5007016;28;20398;-18
2023/06/16 09:19:53;;;;;;;5.80;3.30;;;;;;;27.75;44.34;99406.19;5007280;28;20096;-18
2023/06/16 09:22:23;;;;;;;5.70;3.30;;;;;;;28.01;45.66;99419.44;5007373;28;20356;-18
2023/06/16 09:24:56;;;;;;;7.35;2.95;;;;;;;27.59;41.73;99406.16;5007146;28;20141;-19
2023/06/16 09:27:25;;;;;;;5.85;3.08;;;;;;;27.47;44.62;99422.63;5006959;28;20823;-20
2023/06/16 09:29:57;;;;;;;7.70;3.50;;;;;;;27.18;46.98;99401.81;5006927;28;20113;-18
2023/06/16 09:32:22;;;;;;;5.72;3.10;;;;;;;27.13;46.65;99405.59;5007274;28;20030;-18
2023/06/16 09:34:48;;;;;;;6.07;3.15;;;;;;;26.77;48.22;99406.47;5007121;28;20459;-18
2023/06/16 09:37:18;;;;;;;7.90;3.38;;;;;;;26.95;48.36;99407.81;4989732;28;20029;-19
2023/06/16 09:39:44;;;;;;;11.73;6.55;;;;;;;26.84;48.41;99404.72;5007386;28;20891;-23
2023/06/16 09:42:13;;;;;;;6.30;3.63;;;;;;;26.95;51.68;99396.03;5006897;28;20061;-18
2023/06/16 09:44:40;;;;;;;10.00;3.33;;;;;;;26.94;49.16;99405.41;5006829;28;20489;-18
2023/06/16 09:47:06;;;;;;;10.37;4.73;;;;;;;26.68;48.73;99406.56;5006744;28;20424;-18
2023/06/16 09:49:32;;;;;;;7.15;4.05;;;;;;;26.90;51.35;99382.63;5006957;28;20100;-18
2023/06/16 09:51:58;;;;;;;6.95;3.63;;;;;;;27.13;49.82;99393.84;5006409;28;20704;-18
2023/06/16 09:54:26;;;;;;;7.60;4.20;;;;;;;26.97;47.87;99405.53;5006642;28;20034;-18
2023/06/16 09:56:58;;;;;;;6.22;3.72;;;;;;;26.94;49.20;99378.06;5006551;28;20060;-21
2023/06/16 09:59:25;;;;;;;7.47;3.95;;;;;;;27.34;49.46;99394.50;5006750;28;20065;-19
2023/06/16 10:01:54;;;;;;;13.93;5.18;;;;;;;27.49;51.14;99384.75;5005581;28;20053;-18
2023/06/16 10:04:22;;;;;;;8.25;4.03;;;;;;;27.05;52.16;99368.22;5006748;28;20030;-19
2023/06/16 10:07:02;;;;;;;8.82;4.40;;;;;;;27.58;50.73;99368.97;5006271;28;20032;-18
2023/06/16 10:09:35;;;;;;;7.25;4.18;;;;;;;27.22;47.53;99358.94;5006361;28;20030;-19
2023/06/16 10:12:02;;;;;;;6.20;3.50;;;;;;;27.12;46.06;99373.91;5006184;28;20076;-19
2023/06/16 10:14:33;;;;;;;8.48;4.28;;;;;;;27.00;45.63;99363.78;5006358;28;20943;-19
2023/06/16 10:17:00;;;;;;;7.90;4.70;;;;;;;26.84;47.17;99363.69;5006225;28;20021;-22
2023/06/16 10:19:27;;;;;;;12.00;4.75;;;;;;;26.73;48.90;99361.81;5005810;28;20018;-19
2023/06/16 10:21:53;;;;;;;8.30;4.50;;;;;;;26.61;52.00;99360.66;5005761;28;20096;-20
2023/06/16 10:24:20;;;;;;;5.68;4.10;;;;;;;26.63;50.70;99363.06;5005867;28;20040;-18
2023/06/16 10:26:46;;;;;;;6.30;3.65;;;;;;;26.44;50.72;99356.22;5006257;28;20034;-18
2023/06/16 10:29:16;;;;;;;6.85;4.53;;;;;;;26.03;53.30;99357.19;5005154;28;20081;-18
2023/06/16 10:31:43;;;;;;;8.70;5.78;;;;;;;26.41;52.25;99356.09;5005550;28;20029;-20
2023/06/16 10:34:17;;;;;;;8.40;4.22;;;;;;;26.39;52.59;99358.38;5006284;28;20026;-19
2023/06/16 10:36:42;;;;;;;6.45;4.40;;;;;;;26.10;53.07;99359.38;5006059;28;20034;-18
2023/06/16 10:39:12;;;;;;;6.45;4.40;;;;;;;26.25;53.63;99353.22;5006142;28;20032;-17
2023/06/16 10:41:58;;;;;;;7.65;4.82;;;;;;;26.37;53.79;99349.72;5006167;28;20026;-18
2023/06/16 10:44:25;;;;;;;7.78;5.15;;;;;;;26.30;54.39;99344.03;5005720;28;20670;-18
2023/06/16 10:47:25;;;;;;;7.05;4.80;;;;;;;26.63;53.33;99352.13;5005828;28;20033;-18
2023/06/16 10:50:02;;;;;;;8.35;4.93;;;;;;;26.15;58.30;99343.53;5005732;28;20042;-19
2023/06/16 10:52:27;;;;;;;8.87;6.20;;;;;;;25.93;64.12;99347.53;5005856;28;20040;-18
2023/06/16 10:54:55;;;;;;;8.40;5.45;;;;;;;25.95;66.80;99348.00;5005843;28;20029;-18
2023/06/16 10:57:21;;;;;;;10.55;5.93;;;;;;;25.78;66.28;99345.41;5005653;28;20164;-19
2023/06/16 10:59:54;;;;;;;10.10;5.55;;;;;;;25.53;67.48;99334.44;5005740;28;20033;-22
2023/06/16 11:02:24;;;;;;;12.25;6.38;;;;;;;25.21;71.78;99334.09;5005729;28;20540;-18
2023/06/16 11:05:11;;;;;;;10.45;6.10;;;;;;;25.31;70.99;99343.00;5005412;28;20108;-20
2023/06/16 11:07:43;;;;;;;8.60;6.57;;;;;;;25.18;73.06;99337.44;5005792;28;20119;-18
2023/06/16 11:10:18;;;;;;;8.18;6.28;;;;;;;24.98;76.69;99325.41;5005647;28;20088;-19
2023/06/16 11:12:45;;;;;;;11.93;6.32;;;;;;;25.02;77.13;99328.28;5005792;28;20026;-18
2023/06/16 11:15:10;;;;;;;10.82;6.95;;;;;;;24.98;77.55;99324.63;5005650;28;20055;-19
2023/06/16 11:17:36;;;;;;;12.23;6.60;;;;;;;24.78;76.32;99331.66;5005122;28;20034;-19
2023/06/16 11:20:05;;;;;;;9.40;6.47;;;;;;;24.98;76.89;99338.25;5005441;28;20432;-19